createdAt,value
2023-05-06T07:46:39.591Z,13.83
2023-05-06T07:49:07.840Z,13.90
2023-05-06T07:51:36.109Z,13.06
2023-05-06T07:54:04.460Z,12.39
2023-05-06T07:56:33.086Z,12.29
2023-05-06T07:59:01.765Z,12.45
2023-05-06T08:01:30.205Z,12.50
2023-05-06T08:04:00.668Z,12.47
2023-05-06T08:06:29.253Z,12.96
2023-05-06T08:08:57.519Z,13.39
2023-05-06T08:11:25.647Z,13.01
2023-05-06T08:13:53.936Z,12.29
2023-05-06T08:16:25.005Z,12.10
2023-05-06T08:18:53.723Z,12.03
2023-05-06T08:21:23.086Z,11.88
2023-05-06T08:23:51.264Z,11.88
2023-05-06T08:26:19.548Z,11.80
2023-05-06T08:28:47.654Z,11.85
2023-05-06T08:31:16.058Z,12.08
2023-05-06T08:33:44.370Z,12.12
2023-05-06T08:36:12.612Z,11.70
2023-05-06T08:38:49.002Z,11.68
2023-05-06T08:41:19.983Z,11.56
2023-05-06T08:43:50.619Z,11.38
2023-05-06T08:46:19.405Z,11.35
2023-05-06T08:48:47.831Z,11.43
2023-05-06T08:51:16.460Z,11.61
2023-05-06T08:53:50.662Z,11.81
2023-05-06T08:56:20.102Z,11.78
2023-05-06T08:58:50.222Z,11.89
2023-05-06T09:01:18.850Z,12.03
2023-05-06T09:03:49.249Z,11.98
2023-05-06T09:06:17.794Z,12.27
2023-05-06T09:08:47.206Z,12.33
2023-05-06T09:11:26.110Z,12.32
2023-05-06T09:14:10.122Z,12.20
2023-05-06T09:16:39.601Z,12.14
2023-05-06T09:19:07.686Z,11.95
2023-05-06T09:21:36.908Z,11.95
2023-05-06T09:24:08.842Z,12.29
2023-05-06T09:26:38.551Z,12.38
2023-05-06T09:29:07.281Z,12.37
2023-05-06T09:31:42.122Z,11.94
2023-05-06T09:34:10.824Z,11.79
2023-05-06T09:36:39.753Z,11.71
2023-05-06T09:39:10.317Z,11.70
2023-05-06T09:41:38.870Z,11.65
2023-05-06T09:44:07.205Z,11.69
2023-05-06T09:46:36.197Z,11.56
2023-05-06T09:49:04.999Z,11.75
2023-05-06T09:51:33.287Z,11.82
2023-05-06T09:54:02.396Z,11.96
2023-05-06T09:56:32.629Z,12.28
2023-05-06T09:59:04.373Z,12.36
2023-05-06T10:01:37.344Z,12.09
2023-05-06T10:04:10.235Z,12.28
2023-05-06T10:06:41.682Z,12.27
2023-05-06T10:09:11.502Z,12.19
2023-05-06T10:11:41.573Z,12.02
2023-05-06T10:14:11.192Z,11.92
2023-05-06T10:16:41.063Z,11.83
2023-05-06T10:19:09.840Z,11.61
2023-05-06T10:21:45.052Z,11.73
2023-05-06T10:24:17.737Z,11.85
2023-05-06T10:26:48.033Z,11.89
2023-05-06T10:29:16.359Z,11.59
2023-05-06T10:31:49.677Z,11.62
2023-05-06T10:34:21.698Z,11.73
2023-05-06T10:36:52.994Z,12.49
2023-05-06T10:39:22.025Z,13.70
2023-05-06T10:41:51.988Z,13.54
2023-05-06T10:45:00.661Z,12.36
2023-05-06T10:47:29.074Z,11.91
2023-05-06T10:50:20.082Z,12.02
2023-05-06T10:52:49.784Z,11.93
2023-05-06T10:55:29.089Z,11.79
2023-05-06T10:57:58.361Z,11.98
2023-05-06T11:00:27.820Z,12.10
2023-05-06T11:02:58.144Z,12.15
2023-05-06T11:05:26.884Z,12.49
2023-05-06T11:08:09.846Z,12.65
2023-05-06T11:10:38.588Z,12.65
2023-05-06T11:13:27.675Z,12.83
2023-05-06T11:15:58.531Z,12.76
2023-05-06T11:18:43.555Z,12.49
2023-05-06T11:21:38.872Z,12.57
2023-05-06T11:24:08.096Z,12.71
2023-05-06T11:26:36.708Z,12.59
2023-05-06T11:29:05.559Z,12.55
2023-05-06T11:31:41.058Z,12.22
2023-05-06T11:34:11.630Z,12.35
2023-05-06T11:36:58.590Z,12.52
2023-05-06T11:39:30.480Z,12.65
2023-05-06T11:41:59.984Z,12.60
2023-05-06T11:44:30.490Z,12.78
2023-05-06T11:47:01.566Z,12.62
2023-05-06T11:49:29.990Z,12.14
2023-05-06T11:51:58.434Z,11.94
2023-05-06T11:54:27.812Z,12.50
2023-05-06T11:56:57.375Z,12.63
2023-05-06T11:59:33.448Z,12.21
2023-05-06T12:02:06.257Z,12.15
2023-05-06T12:04:41.640Z,12.14
2023-05-06T12:07:11.439Z,12.13
2023-05-06T12:09:41.857Z,12.35
2023-05-06T12:12:11.400Z,12.49
2023-05-06T12:14:41.352Z,12.71
2023-05-06T12:17:11.291Z,12.60
2023-05-06T12:19:39.855Z,12.55
2023-05-06T12:22:21.565Z,12.64
2023-05-06T12:24:50.267Z,12.61
2023-05-06T12:27:31.064Z,12.66
2023-05-06T12:30:00.653Z,12.69
2023-05-06T12:32:30.226Z,12.76
2023-05-06T12:34:59.572Z,13.01
2023-05-06T12:37:30.309Z,13.05
2023-05-06T12:40:08.437Z,13.68
2023-05-06T12:42:36.843Z,13.41
2023-05-06T12:45:15.542Z,12.60
2023-05-06T12:47:55.062Z,12.96
2023-05-06T12:50:33.887Z,13.01
2023-05-06T12:53:02.536Z,13.04
2023-05-06T12:55:32.032Z,12.63
2023-05-06T12:58:00.452Z,12.40
2023-05-06T13:00:28.871Z,12.03
2023-05-06T13:02:58.482Z,12.03
2023-05-06T13:05:27.042Z,12.21
2023-05-06T13:07:56.447Z,12.31
2023-05-06T13:10:24.519Z,12.73
2023-05-06T13:12:52.843Z,12.61
2023-05-06T13:15:21.448Z,12.50
2023-05-06T13:17:50.394Z,12.52
2023-05-06T13:20:20.371Z,12.96
2023-05-06T13:22:54.394Z,13.64
2023-05-06T13:25:23.391Z,13.77
2023-05-06T13:27:52.007Z,13.87
2023-05-06T13:30:20.177Z,14.48
2023-05-06T13:32:48.785Z,14.65
2023-05-06T13:35:17.125Z,15.35
2023-05-06T13:37:46.494Z,15.03
2023-05-06T13:40:15.694Z,14.86
2023-05-06T13:42:43.801Z,15.43
2023-05-06T13:45:12.860Z,15.00
2023-05-06T13:47:42.423Z,15.02
2023-05-06T13:50:11.484Z,15.30
2023-05-06T13:52:40.271Z,15.40
2023-05-06T13:55:10.583Z,14.82
2023-05-06T13:57:39.278Z,15.24
2023-05-06T14:00:11.071Z,16.08
2023-05-06T14:02:39.368Z,15.26
2023-05-06T14:05:08.998Z,14.22
2023-05-06T14:07:40.196Z,14.03
2023-05-06T14:10:12.027Z,13.91
2023-05-06T14:12:40.586Z,14.07
2023-05-06T14:15:09.705Z,14.06
2023-05-06T14:17:38.345Z,13.89
2023-05-06T14:20:09.106Z,13.86
2023-05-06T14:22:37.774Z,14.30
2023-05-06T14:25:06.580Z,14.68
2023-05-06T14:27:36.602Z,13.60
2023-05-06T14:30:08.602Z,13.50
2023-05-06T14:32:37.982Z,13.24
2023-05-06T14:35:06.854Z,13.56
2023-05-06T14:37:34.857Z,14.44
2023-05-06T14:40:04.595Z,14.56
2023-05-06T14:42:32.832Z,14.14
2023-05-06T14:45:02.884Z,14.08
2023-05-06T14:47:31.126Z,14.07
2023-05-06T14:49:59.492Z,13.67
2023-05-06T14:52:27.928Z,13.87
2023-05-06T14:54:56.019Z,14.28
2023-05-06T14:57:24.357Z,14.26
2023-05-06T14:59:52.689Z,13.73
2023-05-06T15:02:22.769Z,12.88
2023-05-06T15:04:50.825Z,13.06
2023-05-06T15:07:19.027Z,13.66
2023-05-06T15:09:47.379Z,14.39
2023-05-06T15:12:15.670Z,13.99
2023-05-06T15:14:43.720Z,13.21
2023-05-06T15:17:13.516Z,12.82
2023-05-06T15:19:43.298Z,12.16
2023-05-06T15:22:11.931Z,12.02
2023-05-06T15:24:40.162Z,12.46
2023-05-06T15:27:08.285Z,13.28
2023-05-06T15:29:39.438Z,13.46
2023-05-06T15:32:08.238Z,13.41
2023-05-06T15:34:36.571Z,13.51
2023-05-06T15:37:06.392Z,13.63
2023-05-06T15:39:37.756Z,13.40
2023-05-06T15:42:06.571Z,13.39
2023-05-06T15:44:34.923Z,12.98
2023-05-06T15:47:03.420Z,12.78
2023-05-06T15:52:03.441Z,12.26
2023-05-06T15:54:36.160Z,11.97
2023-05-06T15:57:07.017Z,11.74
2023-05-06T15:59:35.642Z,11.71
2023-05-06T16:04:35.113Z,12.02
2023-05-06T16:07:03.425Z,12.95
2023-05-06T16:09:33.015Z,13.30
2023-05-06T16:12:01.419Z,12.85
2023-05-06T16:14:29.648Z,13.14
2023-05-06T16:16:57.825Z,12.97
2023-05-06T16:19:26.147Z,12.62
2023-05-06T16:21:54.524Z,12.47
2023-05-06T16:24:22.675Z,12.16
2023-05-06T16:26:52.728Z,11.67
2023-05-06T16:29:21.148Z,11.45
2023-05-06T16:31:50.003Z,11.22
2023-05-06T16:34:18.358Z,11.39
2023-05-06T16:36:46.497Z,11.52
2023-05-06T16:39:14.624Z,10.98
2023-05-06T16:41:42.634Z,10.60
2023-05-06T16:44:12.140Z,10.53
2023-05-06T16:46:40.996Z,10.37
2023-05-06T16:49:09.964Z,10.20
2023-05-06T16:51:38.130Z,10.31
2023-05-06T16:54:06.580Z,10.14
2023-05-06T16:56:48.169Z,10.20
2023-05-06T16:59:22.367Z,9.97
2023-05-06T17:01:51.013Z,10.10
2023-05-06T17:04:19.163Z,9.85
2023-05-06T17:06:47.457Z,9.91
2023-05-06T17:09:16.483Z,9.80
2023-05-06T17:11:44.766Z,9.78
2023-05-06T17:14:14.073Z,9.79
2023-05-06T17:16:45.254Z,9.84
2023-05-06T17:19:13.617Z,9.54
2023-05-06T17:21:42.571Z,9.47
2023-05-06T17:24:11.359Z,9.37
2023-05-06T17:26:40.418Z,9.31
2023-05-06T17:29:08.638Z,9.32
2023-05-06T17:31:36.789Z,9.35
2023-05-06T17:34:06.347Z,9.31
2023-05-06T17:36:35.089Z,9.29
2023-05-06T17:39:04.640Z,9.29
2023-05-06T17:41:33.620Z,9.27
2023-05-06T17:44:01.996Z,9.26
2023-05-06T17:46:30.188Z,9.23
2023-05-06T17:48:58.890Z,9.23
2023-05-06T17:51:28.414Z,9.30
2023-05-06T17:53:56.927Z,9.24
2023-05-06T17:56:25.289Z,9.12
2023-05-06T17:58:53.754Z,9.05
2023-05-06T18:01:22.186Z,9.09
2023-05-06T18:03:50.553Z,9.05
2023-05-06T18:06:18.729Z,9.05
2023-05-06T18:08:48.669Z,9.08
2023-05-06T18:11:18.427Z,9.12
2023-05-06T18:13:47.010Z,8.97
2023-05-06T18:16:15.505Z,8.87
2023-05-06T18:18:44.874Z,8.83
2023-05-06T18:21:12.986Z,8.91
2023-05-06T18:23:41.311Z,8.86
2023-05-06T18:26:11.269Z,8.66
2023-05-06T18:28:41.342Z,8.68
2023-05-06T18:31:09.499Z,8.60
2023-05-06T18:33:37.867Z,8.63
2023-05-06T18:36:06.423Z,8.60
2023-05-06T18:38:34.780Z,8.57
2023-05-06T18:41:02.973Z,8.73
2023-05-06T18:43:32.533Z,8.73
2023-05-06T18:46:01.005Z,8.66
2023-05-06T18:48:30.976Z,8.64
2023-05-06T18:51:11.116Z,8.65
2023-05-06T18:53:39.316Z,8.43
2023-05-06T18:56:08.733Z,8.42
2023-05-06T18:58:39.556Z,8.42
2023-05-06T19:01:09.575Z,8.40
2023-05-06T19:03:38.902Z,8.29
2023-05-06T19:06:09.242Z,8.41
2023-05-06T19:08:37.962Z,8.42
2023-05-06T19:11:06.430Z,8.41
2023-05-06T19:13:34.591Z,8.43
2023-05-06T19:16:04.109Z,8.45
2023-05-06T19:18:32.462Z,8.40
2023-05-06T19:21:00.925Z,8.37
2023-05-06T19:23:29.013Z,8.43
2023-05-06T19:25:57.195Z,8.43
2023-05-06T19:28:25.418Z,8.51
2023-05-06T19:30:53.895Z,8.46
2023-05-06T19:33:23.451Z,8.47
2023-05-06T19:35:51.815Z,8.51
2023-05-06T19:38:20.609Z,8.54
2023-05-06T19:40:48.972Z,8.31
2023-05-06T19:43:17.156Z,8.34
2023-05-06T19:45:45.326Z,8.29
2023-05-06T19:48:14.659Z,8.31
2023-05-06T19:50:44.241Z,8.32
2023-05-06T19:53:12.870Z,8.31
2023-05-06T19:55:41.119Z,8.37
2023-05-06T19:58:09.209Z,8.32
2023-05-06T20:00:37.273Z,8.31
2023-05-06T20:03:05.764Z,8.30
2023-05-06T20:05:34.284Z,8.48
2023-05-06T20:08:04.210Z,8.60
2023-05-06T20:10:32.492Z,8.48
2023-05-06T20:13:00.844Z,8.31
2023-05-06T20:15:29.966Z,8.22
2023-05-06T20:17:58.230Z,8.19
2023-05-06T20:20:34.121Z,8.16
2023-05-06T20:23:03.751Z,8.12
2023-05-06T20:25:32.056Z,8.10
2023-05-06T20:28:00.972Z,8.26
2023-05-06T20:30:29.136Z,8.34
2023-05-06T20:32:57.399Z,8.19
2023-05-06T20:35:25.749Z,8.10
2023-05-06T20:37:54.661Z,8.00
2023-05-06T20:40:24.273Z,8.00
2023-05-06T20:42:52.683Z,8.00
2023-05-06T20:45:21.421Z,7.84
2023-05-06T20:47:49.700Z,7.82
2023-05-06T20:50:18.764Z,7.83
2023-05-06T20:52:48.337Z,7.86
2023-05-06T20:55:16.624Z,7.83
2023-05-06T20:57:46.283Z,7.98
2023-05-06T21:00:14.716Z,7.89
2023-05-06T21:02:43.153Z,7.92
2023-05-06T21:05:11.753Z,7.97
2023-05-06T21:07:40.632Z,7.91
2023-05-06T21:10:11.107Z,7.84
2023-05-06T21:12:39.415Z,7.64
2023-05-06T21:15:10.604Z,7.51
2023-05-06T21:17:39.129Z,7.34
2023-05-06T21:20:09.949Z,7.23
2023-05-06T21:22:38.157Z,7.17
2023-05-06T21:25:07.405Z,7.21
2023-05-06T21:27:35.791Z,7.26
2023-05-06T21:30:04.258Z,7.29
2023-05-06T21:32:34.456Z,7.11
2023-05-06T21:35:03.851Z,7.13
2023-05-06T21:37:32.895Z,7.11
2023-05-06T21:40:04.361Z,7.21
2023-05-06T21:42:33.033Z,7.32
2023-05-06T21:45:01.112Z,7.28
2023-05-06T21:47:29.495Z,7.32
2023-05-06T21:49:58.905Z,7.34
2023-05-06T21:52:27.501Z,7.35
2023-05-06T21:54:56.463Z,7.20
2023-05-06T21:57:24.591Z,7.25
2023-05-06T21:59:52.774Z,7.19
2023-05-06T22:02:21.087Z,7.18
2023-05-06T22:04:49.451Z,7.21
2023-05-06T22:07:18.954Z,7.21
2023-05-06T22:09:47.274Z,7.26
2023-05-06T22:12:15.664Z,7.32
2023-05-06T22:14:43.785Z,7.34
2023-05-06T22:17:12.612Z,7.29
2023-05-06T22:19:40.910Z,7.28
2023-05-06T22:22:09.706Z,7.22
2023-05-06T22:24:39.484Z,7.12
2023-05-06T22:27:07.779Z,7.14
2023-05-06T22:29:36.201Z,7.19
2023-05-06T22:32:04.465Z,7.31
2023-05-06T22:34:32.696Z,7.30
2023-05-06T22:37:01.244Z,7.14
2023-05-06T22:39:29.718Z,7.00
2023-05-06T22:41:59.346Z,7.00
2023-05-06T22:44:27.449Z,6.97
2023-05-06T22:46:56.222Z,7.04
2023-05-06T22:49:28.262Z,6.99
2023-05-06T22:51:57.118Z,6.93
2023-05-06T22:54:25.674Z,6.95
2023-05-06T22:56:53.846Z,6.81
2023-05-06T22:59:23.302Z,6.81
2023-05-06T23:01:51.517Z,6.78
2023-05-06T23:04:19.928Z,6.71
2023-05-06T23:06:48.280Z,6.74
2023-05-06T23:09:16.371Z,6.89
2023-05-06T23:11:44.658Z,6.71
2023-05-06T23:14:12.911Z,6.63
2023-05-06T23:16:42.415Z,6.63
2023-05-06T23:19:10.871Z,6.69
2023-05-06T23:21:41.356Z,6.70
2023-05-06T23:24:09.759Z,6.83
2023-05-06T23:26:37.817Z,6.86
2023-05-06T23:29:05.889Z,6.87
2023-05-06T23:31:34.455Z,6.76
2023-05-06T23:34:04.427Z,6.82
2023-05-06T23:36:32.537Z,6.81
2023-05-06T23:39:01.206Z,6.84
2023-05-06T23:41:29.635Z,6.81
2023-05-06T23:43:58.274Z,6.66
2023-05-06T23:46:26.652Z,6.65
2023-05-06T23:48:54.895Z,6.63
2023-05-06T23:51:24.607Z,6.63
2023-05-06T23:53:53.209Z,6.73
2023-05-06T23:56:21.866Z,6.72
2023-05-06T23:58:50.007Z,6.73
